DAOB/TID METAR and TAF weather

Enter ICAO airport designator
Station Type Date Time Source
DAOB METAR 2019/02/23 23:00 UTC NOAA

DAOB 232300Z 21004KT CAVOK 01/M04 Q1027


Station Type Date Time Source
DAOB Decoded METAR 2019/02/23 23:00 UTC NOAA

Tiaret, Algeria (DAOB) 35-15N 001-26E 1127M
Feb 23, 2019 - 06:00 PM EST / 2019.02.23 2300 UTC
Wind: from the SSW (210 degrees) at 5 MPH (4 KT):0
Visibility: greater than 7 mile(s):0
Temperature: 33 F (1 C)
Windchill: 28 F (-2 C):1
Dew Point: 24 F (-4 C)
Relative Humidity: 69%
Pressure (altimeter): 30.33 in. Hg (1027 hPa)
ob: DAOB 232300Z 21004KT CAVOK 01/M04 Q1027
cycle: 23

Station Type Date Time Source
DAOB TAF 2019/02/23 18:33 UTC NOAA

TAF DAOB 231700Z 2318/2418 30010KT CAVOK
BECMG 2320/2323 VRB02KT


Example: see airport list